sensor_id;sensor_type;location;lat;lon;timestamp;P1;durP1;ratioP1;P2;durP2;ratioP2
55993;SDS011;67425;52.126;20.638;2023-08-12T00:00:48;22.83;;;9.43;;
55993;SDS011;67425;52.126;20.638;2023-08-12T00:03:13;19.73;;;9.52;;
55993;SDS011;67425;52.126;20.638;2023-08-12T00:05:39;21.48;;;9.90;;
55993;SDS011;67425;52.126;20.638;2023-08-12T00:08:05;24.73;;;9.60;;
55993;SDS011;67425;52.126;20.638;2023-08-12T00:10:30;21.58;;;9.70;;
55993;SDS011;67425;52.126;20.638;2023-08-12T00:12:56;22.23;;;10.23;;
55993;SDS011;67425;52.126;20.638;2023-08-12T00:15:21;25.27;;;9.98;;
55993;SDS011;67425;52.126;20.638;2023-08-12T00:17:46;21.05;;;9.27;;
55993;SDS011;67425;52.126;20.638;2023-08-12T00:20:12;28.35;;;9.60;;
55993;SDS011;67425;52.126;20.638;2023-08-12T00:22:38;25.60;;;10.82;;
55993;SDS011;67425;52.126;20.638;2023-08-12T00:25:04;16.63;;;9.15;;
55993;SDS011;67425;52.126;20.638;2023-08-12T00:27:30;24.70;;;11.00;;
55993;SDS011;67425;52.126;20.638;2023-08-12T00:29:56;24.02;;;10.70;;
55993;SDS011;67425;52.126;20.638;2023-08-12T00:32:21;17.65;;;9.73;;
55993;SDS011;67425;52.126;20.638;2023-08-12T00:34:46;22.10;;;10.73;;
55993;SDS011;67425;52.126;20.638;2023-08-12T00:37:12;22.27;;;9.98;;
55993;SDS011;67425;52.126;20.638;2023-08-12T00:39:37;16.85;;;8.75;;
55993;SDS011;67425;52.126;20.638;2023-08-12T00:42:03;18.17;;;7.78;;
55993;SDS011;67425;52.126;20.638;2023-08-12T00:44:28;15.05;;;8.50;;
55993;SDS011;67425;52.126;20.638;2023-08-12T00:46:54;13.27;;;8.30;;
55993;SDS011;67425;52.126;20.638;2023-08-12T00:49:20;13.27;;;8.48;;
55993;SDS011;67425;52.126;20.638;2023-08-12T00:51:46;20.80;;;8.02;;
55993;SDS011;67425;52.126;20.638;2023-08-12T00:54:14;12.10;;;7.63;;
55993;SDS011;67425;52.126;20.638;2023-08-12T00:56:41;15.65;;;7.45;;
55993;SDS011;67425;52.126;20.638;2023-08-12T00:59:08;14.05;;;8.23;;
55993;SDS011;67425;52.126;20.638;2023-08-12T01:01:35;13.40;;;7.72;;
55993;SDS011;67425;52.126;20.638;2023-08-12T01:04:03;12.43;;;6.65;;
55993;SDS011;67425;52.126;20.638;2023-08-12T01:06:28;16.48;;;7.60;;
55993;SDS011;67425;52.126;20.638;2023-08-12T01:08:54;21.23;;;8.60;;
55993;SDS011;67425;52.126;20.638;2023-08-12T01:11:42;17.30;;;8.35;;
55993;SDS011;67425;52.126;20.638;2023-08-12T01:16:45;17.80;;;8.38;;
55993;SDS011;67425;52.126;20.638;2023-08-12T01:19:17;12.27;;;7.90;;
55993;SDS011;67425;52.126;20.638;2023-08-12T01:21:49;15.02;;;8.55;;
55993;SDS011;67425;52.126;20.638;2023-08-12T01:24:19;8.02;;;7.22;;
55993;SDS011;67425;52.126;20.638;2023-08-12T01:26:46;17.73;;;7.43;;
55993;SDS011;67425;52.126;20.638;2023-08-12T01:29:11;16.73;;;7.47;;
55993;SDS011;67425;52.126;20.638;2023-08-12T01:31:39;14.43;;;7.50;;
55993;SDS011;67425;52.126;20.638;2023-08-12T01:34:18;13.43;;;7.50;;
55993;SDS011;67425;52.126;20.638;2023-08-12T01:36:52;13.95;;;7.80;;
55993;SDS011;67425;52.126;20.638;2023-08-12T01:39:21;16.77;;;7.55;;
55993;SDS011;67425;52.126;20.638;2023-08-12T01:41:48;18.73;;;8.25;;
55993;SDS011;67425;52.126;20.638;2023-08-12T01:44:16;10.48;;;7.20;;
55993;SDS011;67425;52.126;20.638;2023-08-12T01:46:43;12.32;;;7.45;;
55993;SDS011;67425;52.126;20.638;2023-08-12T01:49:10;12.75;;;7.55;;
55993;SDS011;67425;52.126;20.638;2023-08-12T01:51:35;13.75;;;7.45;;
55993;SDS011;67425;52.126;20.638;2023-08-12T01:54:01;13.70;;;7.80;;
55993;SDS011;67425;52.126;20.638;2023-08-12T01:56:26;12.77;;;7.85;;
55993;SDS011;67425;52.126;20.638;2023-08-12T01:58:51;13.52;;;8.43;;
55993;SDS011;67425;52.126;20.638;2023-08-12T02:01:17;14.20;;;8.05;;
55993;SDS011;67425;52.126;20.638;2023-08-12T02:03:42;19.60;;;8.07;;
55993;SDS011;67425;52.126;20.638;2023-08-12T02:06:07;11.38;;;7.05;;
55993;SDS011;67425;52.126;20.638;2023-08-12T02:08:33;16.48;;;7.40;;
55993;SDS011;67425;52.126;20.638;2023-08-12T02:10:58;13.55;;;7.13;;
55993;SDS011;67425;52.126;20.638;2023-08-12T02:13:23;12.05;;;7.80;;
55993;SDS011;67425;52.126;20.638;2023-08-12T02:15:49;17.80;;;7.90;;
55993;SDS011;67425;52.126;20.638;2023-08-12T02:18:14;11.95;;;7.28;;
55993;SDS011;67425;52.126;20.638;2023-08-12T02:20:42;11.32;;;7.95;;
55993;SDS011;67425;52.126;20.638;2023-08-12T02:23:08;10.60;;;7.63;;
55993;SDS011;67425;52.126;20.638;2023-08-12T02:25:33;14.65;;;7.53;;
55993;SDS011;67425;52.126;20.638;2023-08-12T02:27:58;15.77;;;7.65;;
55993;SDS011;67425;52.126;20.638;2023-08-12T02:30:24;11.15;;;7.93;;
55993;SDS011;67425;52.126;20.638;2023-08-12T02:32:49;15.32;;;7.93;;
55993;SDS011;67425;52.126;20.638;2023-08-12T02:35:15;13.68;;;7.20;;
55993;SDS011;67425;52.126;20.638;2023-08-12T02:37:42;14.50;;;7.90;;
55993;SDS011;67425;52.126;20.638;2023-08-12T02:40:08;11.88;;;8.02;;
55993;SDS011;67425;52.126;20.638;2023-08-12T02:42:34;17.23;;;7.32;;
55993;SDS011;67425;52.126;20.638;2023-08-12T02:44:59;16.00;;;8.38;;
55993;SDS011;67425;52.126;20.638;2023-08-12T02:47:25;12.02;;;7.70;;
55993;SDS011;67425;52.126;20.638;2023-08-12T02:49:51;15.77;;;8.10;;
55993;SDS011;67425;52.126;20.638;2023-08-12T02:52:16;12.98;;;7.95;;
55993;SDS011;67425;52.126;20.638;2023-08-12T02:54:41;9.23;;;7.07;;
55993;SDS011;67425;52.126;20.638;2023-08-12T02:57:07;17.30;;;7.55;;
55993;SDS011;67425;52.126;20.638;2023-08-12T02:59:32;18.38;;;7.30;;
55993;SDS011;67425;52.126;20.638;2023-08-12T03:01:57;9.00;;;6.95;;
55993;SDS011;67425;52.126;20.638;2023-08-12T03:04:23;20.40;;;8.20;;
55993;SDS011;67425;52.126;20.638;2023-08-12T03:06:49;13.18;;;7.70;;
55993;SDS011;67425;52.126;20.638;2023-08-12T03:09:15;19.60;;;7.63;;
55993;SDS011;67425;52.126;20.638;2023-08-12T03:11:40;11.25;;;7.80;;
55993;SDS011;67425;52.126;20.638;2023-08-12T03:14:05;12.15;;;8.02;;
55993;SDS011;67425;52.126;20.638;2023-08-12T03:16:30;20.85;;;8.48;;
55993;SDS011;67425;52.126;20.638;2023-08-12T03:18:56;15.15;;;7.97;;
55993;SDS011;67425;52.126;20.638;2023-08-12T03:21:21;12.95;;;7.45;;
55993;SDS011;67425;52.126;20.638;2023-08-12T03:23:47;13.90;;;7.45;;
55993;SDS011;67425;52.126;20.638;2023-08-12T03:26:12;11.18;;;7.13;;
55993;SDS011;67425;52.126;20.638;2023-08-12T03:28:39;15.27;;;6.72;;
55993;SDS011;67425;52.126;20.638;2023-08-12T03:31:04;10.95;;;7.60;;
55993;SDS011;67425;52.126;20.638;2023-08-12T03:33:30;8.40;;;7.20;;
55993;SDS011;67425;52.126;20.638;2023-08-12T03:35:56;19.35;;;7.35;;
55993;SDS011;67425;52.126;20.638;2023-08-12T03:38:22;11.90;;;6.93;;
55993;SDS011;67425;52.126;20.638;2023-08-12T03:40:47;17.05;;;7.32;;
55993;SDS011;67425;52.126;20.638;2023-08-12T03:43:13;10.88;;;7.18;;
55993;SDS011;67425;52.126;20.638;2023-08-12T03:45:42;12.60;;;8.15;;
55993;SDS011;67425;52.126;20.638;2023-08-12T03:48:08;11.88;;;7.30;;
55993;SDS011;67425;52.126;20.638;2023-08-12T03:50:34;22.33;;;7.55;;
55993;SDS011;67425;52.126;20.638;2023-08-12T03:53:01;14.18;;;7.25;;
55993;SDS011;67425;52.126;20.638;2023-08-12T03:55:29;10.02;;;6.80;;
55993;SDS011;67425;52.126;20.638;2023-08-12T03:57:55;12.35;;;6.53;;
55993;SDS011;67425;52.126;20.638;2023-08-12T04:00:21;10.85;;;6.63;;
55993;SDS011;67425;52.126;20.638;2023-08-12T04:02:46;12.80;;;7.07;;
55993;SDS011;67425;52.126;20.638;2023-08-12T04:05:11;16.13;;;7.45;;
55993;SDS011;67425;52.126;20.638;2023-08-12T04:07:37;9.38;;;6.25;;
55993;SDS011;67425;52.126;20.638;2023-08-12T04:10:02;15.20;;;6.78;;
55993;SDS011;67425;52.126;20.638;2023-08-12T04:12:28;13.38;;;6.82;;
55993;SDS011;67425;52.126;20.638;2023-08-12T04:14:53;11.00;;;7.38;;
55993;SDS011;67425;52.126;20.638;2023-08-12T04:17:18;15.20;;;7.13;;
55993;SDS011;67425;52.126;20.638;2023-08-12T04:19:44;12.95;;;7.20;;
55993;SDS011;67425;52.126;20.638;2023-08-12T04:22:09;12.27;;;6.70;;
55993;SDS011;67425;52.126;20.638;2023-08-12T04:24:34;12.45;;;6.63;;
55993;SDS011;67425;52.126;20.638;2023-08-12T04:27:00;9.90;;;6.85;;
55993;SDS011;67425;52.126;20.638;2023-08-12T04:29:25;17.08;;;7.75;;
55993;SDS011;67425;52.126;20.638;2023-08-12T04:31:50;11.73;;;7.43;;
55993;SDS011;67425;52.126;20.638;2023-08-12T04:34:17;12.98;;;7.45;;
55993;SDS011;67425;52.126;20.638;2023-08-12T04:36:43;11.45;;;7.13;;
55993;SDS011;67425;52.126;20.638;2023-08-12T04:39:08;8.45;;;6.35;;
55993;SDS011;67425;52.126;20.638;2023-08-12T04:41:35;11.30;;;6.60;;
55993;SDS011;67425;52.126;20.638;2023-08-12T04:44:00;10.35;;;6.80;;
55993;SDS011;67425;52.126;20.638;2023-08-12T04:46:26;10.05;;;6.60;;
55993;SDS011;67425;52.126;20.638;2023-08-12T04:48:51;14.80;;;7.05;;
55993;SDS011;67425;52.126;20.638;2023-08-12T04:51:17;18.25;;;6.93;;
55993;SDS011;67425;52.126;20.638;2023-08-12T04:53:42;12.52;;;7.03;;
55993;SDS011;67425;52.126;20.638;2023-08-12T04:56:07;16.00;;;6.50;;
55993;SDS011;67425;52.126;20.638;2023-08-12T04:58:33;17.63;;;7.55;;
55993;SDS011;67425;52.126;20.638;2023-08-12T05:00:58;22.15;;;7.57;;
55993;SDS011;67425;52.126;20.638;2023-08-12T05:03:25;12.20;;;7.30;;
55993;SDS011;67425;52.126;20.638;2023-08-12T05:05:51;7.38;;;6.32;;
55993;SDS011;67425;52.126;20.638;2023-08-12T05:08:17;17.08;;;7.25;;
55993;SDS011;67425;52.126;20.638;2023-08-12T05:10:42;21.60;;;7.07;;
55993;SDS011;67425;52.126;20.638;2023-08-12T05:13:07;15.88;;;8.13;;
55993;SDS011;67425;52.126;20.638;2023-08-12T05:15:33;11.68;;;7.07;;
55993;SDS011;67425;52.126;20.638;2023-08-12T05:17:58;15.73;;;6.80;;
55993;SDS011;67425;52.126;20.638;2023-08-12T05:20:23;15.57;;;7.82;;
55993;SDS011;67425;52.126;20.638;2023-08-12T05:22:49;14.82;;;7.10;;
55993;SDS011;67425;52.126;20.638;2023-08-12T05:25:14;20.10;;;7.40;;
55993;SDS011;67425;52.126;20.638;2023-08-12T05:27:39;11.57;;;6.25;;
55993;SDS011;67425;52.126;20.638;2023-08-12T05:30:05;20.20;;;5.95;;
55993;SDS011;67425;52.126;20.638;2023-08-12T05:32:31;11.63;;;6.88;;
55993;SDS011;67425;52.126;20.638;2023-08-12T05:34:56;17.20;;;6.85;;
55993;SDS011;67425;52.126;20.638;2023-08-12T05:37:22;9.25;;;6.63;;
55993;SDS011;67425;52.126;20.638;2023-08-12T05:39:47;13.27;;;6.57;;
55993;SDS011;67425;52.126;20.638;2023-08-12T05:42:12;16.33;;;6.13;;
55993;SDS011;67425;52.126;20.638;2023-08-12T05:44:40;17.52;;;6.18;;
55993;SDS011;67425;52.126;20.638;2023-08-12T05:47:07;15.30;;;5.95;;
55993;SDS011;67425;52.126;20.638;2023-08-12T05:49:32;15.10;;;5.53;;
55993;SDS011;67425;52.126;20.638;2023-08-12T05:51:57;18.83;;;5.93;;
55993;SDS011;67425;52.126;20.638;2023-08-12T05:54:23;10.55;;;5.50;;
55993;SDS011;67425;52.126;20.638;2023-08-12T05:56:48;13.90;;;5.45;;
55993;SDS011;67425;52.126;20.638;2023-08-12T05:59:13;10.43;;;5.15;;
55993;SDS011;67425;52.126;20.638;2023-08-12T06:01:38;19.80;;;4.72;;
55993;SDS011;67425;52.126;20.638;2023-08-12T06:04:04;10.13;;;4.97;;
55993;SDS011;67425;52.126;20.638;2023-08-12T06:06:29;8.57;;;4.47;;
55993;SDS011;67425;52.126;20.638;2023-08-12T06:08:54;10.77;;;5.00;;
55993;SDS011;67425;52.126;20.638;2023-08-12T06:11:20;14.65;;;4.97;;
55993;SDS011;67425;52.126;20.638;2023-08-12T06:13:45;7.88;;;4.53;;
55993;SDS011;67425;52.126;20.638;2023-08-12T06:16:10;8.43;;;3.90;;
55993;SDS011;67425;52.126;20.638;2023-08-12T06:18:36;8.85;;;4.47;;
55993;SDS011;67425;52.126;20.638;2023-08-12T06:21:01;18.70;;;3.72;;
55993;SDS011;67425;52.126;20.638;2023-08-12T06:23:27;9.85;;;4.20;;
55993;SDS011;67425;52.126;20.638;2023-08-12T06:25:52;7.93;;;3.75;;
55993;SDS011;67425;52.126;20.638;2023-08-12T06:28:17;13.07;;;3.53;;
55993;SDS011;67425;52.126;20.638;2023-08-12T06:30:46;5.93;;;3.40;;
55993;SDS011;67425;52.126;20.638;2023-08-12T06:33:13;11.57;;;3.75;;
55993;SDS011;67425;52.126;20.638;2023-08-12T06:35:38;6.80;;;3.60;;
55993;SDS011;67425;52.126;20.638;2023-08-12T06:38:04;7.30;;;3.40;;
55993;SDS011;67425;52.126;20.638;2023-08-12T06:40:30;7.88;;;4.13;;
55993;SDS011;67425;52.126;20.638;2023-08-12T06:42:55;7.50;;;3.08;;
55993;SDS011;67425;52.126;20.638;2023-08-12T06:45:21;3.90;;;3.45;;
55993;SDS011;67425;52.126;20.638;2023-08-12T06:47:46;8.85;;;3.55;;
55993;SDS011;67425;52.126;20.638;2023-08-12T06:50:12;8.30;;;3.30;;
55993;SDS011;67425;52.126;20.638;2023-08-12T06:52:37;4.00;;;2.90;;
55993;SDS011;67425;52.126;20.638;2023-08-12T06:55:02;13.35;;;2.97;;
55993;SDS011;67425;52.126;20.638;2023-08-12T06:57:28;6.53;;;3.60;;
55993;SDS011;67425;52.126;20.638;2023-08-12T06:59:53;9.02;;;2.67;;
55993;SDS011;67425;52.126;20.638;2023-08-12T07:02:19;13.18;;;3.17;;
55993;SDS011;67425;52.126;20.638;2023-08-12T07:04:44;3.67;;;2.70;;
55993;SDS011;67425;52.126;20.638;2023-08-12T07:07:10;4.22;;;2.83;;
55993;SDS011;67425;52.126;20.638;2023-08-12T07:09:35;10.35;;;2.60;;
55993;SDS011;67425;52.126;20.638;2023-08-12T07:12:00;6.80;;;2.92;;
55993;SDS011;67425;52.126;20.638;2023-08-12T07:14:26;3.97;;;2.70;;
55993;SDS011;67425;52.126;20.638;2023-08-12T07:16:53;10.75;;;2.50;;
55993;SDS011;67425;52.126;20.638;2023-08-12T07:19:18;5.75;;;2.90;;
55993;SDS011;67425;52.126;20.638;2023-08-12T07:21:43;5.10;;;2.60;;
55993;SDS011;67425;52.126;20.638;2023-08-12T07:24:09;3.35;;;2.38;;
55993;SDS011;67425;52.126;20.638;2023-08-12T07:26:34;3.97;;;2.17;;
55993;SDS011;67425;52.126;20.638;2023-08-12T07:29:00;11.95;;;2.38;;
55993;SDS011;67425;52.126;20.638;2023-08-12T07:31:25;6.78;;;2.50;;
55993;SDS011;67425;52.126;20.638;2023-08-12T07:33:50;4.93;;;2.40;;
55993;SDS011;67425;52.126;20.638;2023-08-12T07:36:15;5.63;;;2.55;;
55993;SDS011;67425;52.126;20.638;2023-08-12T07:38:41;9.93;;;2.47;;
55993;SDS011;67425;52.126;20.638;2023-08-12T07:41:06;3.13;;;2.20;;
55993;SDS011;67425;52.126;20.638;2023-08-12T07:43:32;2.45;;;2.13;;
55993;SDS011;67425;52.126;20.638;2023-08-12T07:45:57;6.32;;;2.33;;
55993;SDS011;67425;52.126;20.638;2023-08-12T07:48:22;7.32;;;2.03;;
55993;SDS011;67425;52.126;20.638;2023-08-12T07:50:54;7.85;;;2.17;;
55993;SDS011;67425;52.126;20.638;2023-08-12T07:53:21;7.15;;;2.55;;
55993;SDS011;67425;52.126;20.638;2023-08-12T07:55:46;4.38;;;2.05;;
55993;SDS011;67425;52.126;20.638;2023-08-12T07:58:12;2.25;;;1.73;;
55993;SDS011;67425;52.126;20.638;2023-08-12T08:00:38;7.57;;;1.90;;
55993;SDS011;67425;52.126;20.638;2023-08-12T08:03:04;7.47;;;1.75;;
55993;SDS011;67425;52.126;20.638;2023-08-12T08:05:29;8.77;;;1.45;;
55993;SDS011;67425;52.126;20.638;2023-08-12T08:07:54;3.30;;;2.15;;
55993;SDS011;67425;52.126;20.638;2023-08-12T08:10:20;2.28;;;1.70;;
55993;SDS011;67425;52.126;20.638;2023-08-12T08:12:45;5.85;;;1.77;;
55993;SDS011;67425;52.126;20.638;2023-08-12T08:15:11;8.02;;;1.98;;
55993;SDS011;67425;52.126;20.638;2023-08-12T08:17:37;3.72;;;2.15;;
55993;SDS011;67425;52.126;20.638;2023-08-12T08:20:03;4.82;;;2.08;;
55993;SDS011;67425;52.126;20.638;2023-08-12T08:22:30;4.53;;;1.50;;
55993;SDS011;67425;52.126;20.638;2023-08-12T08:24:55;3.80;;;1.40;;
55993;SDS011;67425;52.126;20.638;2023-08-12T08:27:20;3.63;;;1.48;;
55993;SDS011;67425;52.126;20.638;2023-08-12T08:29:46;7.10;;;1.73;;
55993;SDS011;67425;52.126;20.638;2023-08-12T08:32:11;3.60;;;1.50;;
55993;SDS011;67425;52.126;20.638;2023-08-12T08:34:37;10.60;;;1.80;;
55993;SDS011;67425;52.126;20.638;2023-08-12T08:37:02;4.72;;;1.42;;
55993;SDS011;67425;52.126;20.638;2023-08-12T08:39:27;4.93;;;1.70;;
55993;SDS011;67425;52.126;20.638;2023-08-12T08:41:53;3.78;;;1.63;;
55993;SDS011;67425;52.126;20.638;2023-08-12T08:44:21;3.08;;;1.45;;
55993;SDS011;67425;52.126;20.638;2023-08-12T08:46:49;4.30;;;1.50;;
55993;SDS011;67425;52.126;20.638;2023-08-12T08:49:17;2.15;;;1.80;;
55993;SDS011;67425;52.126;20.638;2023-08-12T08:51:43;6.90;;;1.75;;
55993;SDS011;67425;52.126;20.638;2023-08-12T08:54:11;4.13;;;1.58;;
55993;SDS011;67425;52.126;20.638;2023-08-12T08:56:37;8.02;;;1.90;;
55993;SDS011;67425;52.126;20.638;2023-08-12T08:59:03;4.43;;;1.92;;
55993;SDS011;67425;52.126;20.638;2023-08-12T09:01:29;5.53;;;1.85;;
55993;SDS011;67425;52.126;20.638;2023-08-12T09:03:56;3.75;;;1.60;;
55993;SDS011;67425;52.126;20.638;2023-08-12T09:06:22;6.07;;;1.70;;
55993;SDS011;67425;52.126;20.638;2023-08-12T09:08:51;3.35;;;1.33;;
55993;SDS011;67425;52.126;20.638;2023-08-12T09:11:17;5.40;;;1.45;;
55993;SDS011;67425;52.126;20.638;2023-08-12T09:13:44;4.50;;;1.42;;
55993;SDS011;67425;52.126;20.638;2023-08-12T09:16:10;3.78;;;1.20;;
55993;SDS011;67425;52.126;20.638;2023-08-12T09:18:36;5.20;;;1.48;;
55993;SDS011;67425;52.126;20.638;2023-08-12T09:21:02;7.63;;;1.50;;
55993;SDS011;67425;52.126;20.638;2023-08-12T09:23:28;5.00;;;1.70;;
55993;SDS011;67425;52.126;20.638;2023-08-12T09:26:00;8.32;;;1.60;;
55993;SDS011;67425;52.126;20.638;2023-08-12T09:28:26;2.70;;;1.83;;
55993;SDS011;67425;52.126;20.638;2023-08-12T09:30:51;3.03;;;1.63;;
55993;SDS011;67425;52.126;20.638;2023-08-12T09:33:23;10.95;;;1.50;;
55993;SDS011;67425;52.126;20.638;2023-08-12T09:35:51;2.95;;;1.52;;
55993;SDS011;67425;52.126;20.638;2023-08-12T09:38:16;3.50;;;1.50;;
55993;SDS011;67425;52.126;20.638;2023-08-12T09:40:41;8.63;;;1.85;;
55993;SDS011;67425;52.126;20.638;2023-08-12T09:43:07;4.13;;;1.77;;
55993;SDS011;67425;52.126;20.638;2023-08-12T09:45:34;7.13;;;1.52;;
55993;SDS011;67425;52.126;20.638;2023-08-12T09:47:59;5.68;;;1.70;;
55993;SDS011;67425;52.126;20.638;2023-08-12T09:50:25;4.20;;;1.45;;
55993;SDS011;67425;52.126;20.638;2023-08-12T09:52:52;5.32;;;1.40;;
55993;SDS011;67425;52.126;20.638;2023-08-12T09:55:19;4.28;;;1.52;;
55993;SDS011;67425;52.126;20.638;2023-08-12T09:57:48;3.60;;;1.90;;
55993;SDS011;67425;52.126;20.638;2023-08-12T10:00:16;6.10;;;1.40;;
55993;SDS011;67425;52.126;20.638;2023-08-12T10:02:44;6.32;;;2.15;;
55993;SDS011;67425;52.126;20.638;2023-08-12T10:05:32;8.13;;;1.67;;
55993;SDS011;67425;52.126;20.638;2023-08-12T10:07:58;11.45;;;2.50;;
55993;SDS011;67425;52.126;20.638;2023-08-12T10:10:26;6.68;;;1.75;;
55993;SDS011;67425;52.126;20.638;2023-08-12T10:12:52;4.22;;;1.38;;
55993;SDS011;67425;52.126;20.638;2023-08-12T10:15:18;3.17;;;1.80;;
55993;SDS011;67425;52.126;20.638;2023-08-12T10:17:44;3.90;;;1.65;;
55993;SDS011;67425;52.126;20.638;2023-08-12T10:20:15;1.55;;;1.33;;
55993;SDS011;67425;52.126;20.638;2023-08-12T10:22:45;5.85;;;2.05;;
55993;SDS011;67425;52.126;20.638;2023-08-12T10:25:11;4.63;;;2.10;;
55993;SDS011;67425;52.126;20.638;2023-08-12T10:27:38;3.50;;;1.58;;
55993;SDS011;67425;52.126;20.638;2023-08-12T10:30:04;9.38;;;1.77;;
55993;SDS011;67425;52.126;20.638;2023-08-12T10:32:31;7.50;;;1.30;;
55993;SDS011;67425;52.126;20.638;2023-08-12T10:34:57;2.40;;;1.60;;
55993;SDS011;67425;52.126;20.638;2023-08-12T10:37:27;6.78;;;1.73;;
55993;SDS011;67425;52.126;20.638;2023-08-12T10:39:53;3.58;;;2.10;;
55993;SDS011;67425;52.126;20.638;2023-08-12T10:45:09;4.75;;;1.40;;
55993;SDS011;67425;52.126;20.638;2023-08-12T10:48:21;4.68;;;1.50;;
55993;SDS011;67425;52.126;20.638;2023-08-12T10:50:27;4.30;;;1.92;;
55993;SDS011;67425;52.126;20.638;2023-08-12T10:52:56;2.15;;;1.50;;
55993;SDS011;67425;52.126;20.638;2023-08-12T10:55:23;1.75;;;1.13;;
55993;SDS011;67425;52.126;20.638;2023-08-12T10:57:50;4.80;;;1.65;;
55993;SDS011;67425;52.126;20.638;2023-08-12T11:00:22;2.10;;;1.30;;
55993;SDS011;67425;52.126;20.638;2023-08-12T11:02:53;12.00;;;1.95;;
55993;SDS011;67425;52.126;20.638;2023-08-12T11:05:22;13.65;;;2.30;;
55993;SDS011;67425;52.126;20.638;2023-08-12T11:10:26;8.85;;;2.60;;
55993;SDS011;67425;52.126;20.638;2023-08-12T11:17:59;13.23;;;1.65;;
55993;SDS011;67425;52.126;20.638;2023-08-12T11:20:27;4.15;;;1.15;;
55993;SDS011;67425;52.126;20.638;2023-08-12T11:22:54;19.42;;;1.70;;
55993;SDS011;67425;52.126;20.638;2023-08-12T11:25:19;3.10;;;1.63;;
55993;SDS011;67425;52.126;20.638;2023-08-12T11:27:45;4.63;;;1.80;;
55993;SDS011;67425;52.126;20.638;2023-08-12T11:30:16;2.20;;;1.50;;
55993;SDS011;67425;52.126;20.638;2023-08-12T11:32:45;1.40;;;1.20;;
55993;SDS011;67425;52.126;20.638;2023-08-12T11:35:12;8.38;;;1.65;;
55993;SDS011;67425;52.126;20.638;2023-08-12T11:37:40;5.88;;;1.52;;
55993;SDS011;67425;52.126;20.638;2023-08-12T11:40:07;3.78;;;2.58;;
55993;SDS011;67425;52.126;20.638;2023-08-12T11:42:37;2.92;;;2.00;;
55993;SDS011;67425;52.126;20.638;2023-08-12T11:45:04;3.30;;;1.70;;
55993;SDS011;67425;52.126;20.638;2023-08-12T11:47:30;4.05;;;1.58;;
55993;SDS011;67425;52.126;20.638;2023-08-12T11:49:55;4.90;;;1.30;;
55993;SDS011;67425;52.126;20.638;2023-08-12T11:52:20;5.80;;;2.28;;
55993;SDS011;67425;52.126;20.638;2023-08-12T11:54:47;2.90;;;1.02;;
55993;SDS011;67425;52.126;20.638;2023-08-12T11:57:14;2.30;;;1.40;;
55993;SDS011;67425;52.126;20.638;2023-08-12T11:59:39;4.00;;;2.13;;
55993;SDS011;67425;52.126;20.638;2023-08-12T12:02:05;3.08;;;1.40;;
55993;SDS011;67425;52.126;20.638;2023-08-12T12:04:31;6.90;;;1.60;;
55993;SDS011;67425;52.126;20.638;2023-08-12T12:06:57;1.98;;;1.67;;
55993;SDS011;67425;52.126;20.638;2023-08-12T12:09:22;4.45;;;2.15;;
55993;SDS011;67425;52.126;20.638;2023-08-12T12:11:51;6.50;;;1.80;;
55993;SDS011;67425;52.126;20.638;2023-08-12T12:14:18;4.10;;;1.40;;
55993;SDS011;67425;52.126;20.638;2023-08-12T12:16:44;3.17;;;1.65;;
55993;SDS011;67425;52.126;20.638;2023-08-12T12:19:14;6.05;;;1.38;;
55993;SDS011;67425;52.126;20.638;2023-08-12T12:21:42;4.18;;;2.08;;
55993;SDS011;67425;52.126;20.638;2023-08-12T12:24:10;1.65;;;1.48;;
55993;SDS011;67425;52.126;20.638;2023-08-12T12:26:36;8.75;;;1.42;;
55993;SDS011;67425;52.126;20.638;2023-08-12T12:29:05;6.03;;;1.38;;
55993;SDS011;67425;52.126;20.638;2023-08-12T12:31:32;2.15;;;1.55;;
55993;SDS011;67425;52.126;20.638;2023-08-12T12:33:59;13.93;;;3.20;;
55993;SDS011;67425;52.126;20.638;2023-08-12T12:36:24;1.98;;;1.45;;
55993;SDS011;67425;52.126;20.638;2023-08-12T12:38:50;4.90;;;1.30;;
55993;SDS011;67425;52.126;20.638;2023-08-12T12:41:16;2.20;;;1.48;;
55993;SDS011;67425;52.126;20.638;2023-08-12T12:43:42;9.85;;;2.60;;
55993;SDS011;67425;52.126;20.638;2023-08-12T12:46:07;4.90;;;1.48;;
55993;SDS011;67425;52.126;20.638;2023-08-12T12:48:32;4.47;;;1.35;;
55993;SDS011;67425;52.126;20.638;2023-08-12T12:50:58;5.93;;;1.45;;
55993;SDS011;67425;52.126;20.638;2023-08-12T12:53:23;4.30;;;1.60;;
55993;SDS011;67425;52.126;20.638;2023-08-12T12:55:49;4.95;;;4.28;;
55993;SDS011;67425;52.126;20.638;2023-08-12T12:58:14;7.60;;;1.60;;
55993;SDS011;67425;52.126;20.638;2023-08-12T13:00:39;9.13;;;1.85;;
55993;SDS011;67425;52.126;20.638;2023-08-12T13:03:05;1.63;;;1.50;;
55993;SDS011;67425;52.126;20.638;2023-08-12T13:05:30;5.65;;;1.77;;
55993;SDS011;67425;52.126;20.638;2023-08-12T13:07:55;2.70;;;1.80;;
55993;SDS011;67425;52.126;20.638;2023-08-12T13:10:21;12.13;;;2.90;;
55993;SDS011;67425;52.126;20.638;2023-08-12T13:12:46;9.30;;;2.58;;
55993;SDS011;67425;52.126;20.638;2023-08-12T13:15:11;4.25;;;3.17;;
55993;SDS011;67425;52.126;20.638;2023-08-12T13:17:37;3.20;;;1.35;;
55993;SDS011;67425;52.126;20.638;2023-08-12T13:20:02;29.33;;;21.45;;
55993;SDS011;67425;52.126;20.638;2023-08-12T13:22:28;16.27;;;11.52;;
55993;SDS011;67425;52.126;20.638;2023-08-12T13:24:54;30.33;;;20.48;;
55993;SDS011;67425;52.126;20.638;2023-08-12T13:27:19;8.30;;;2.40;;
55993;SDS011;67425;52.126;20.638;2023-08-12T13:29:44;6.10;;;1.73;;
55993;SDS011;67425;52.126;20.638;2023-08-12T13:32:10;10.90;;;6.53;;
55993;SDS011;67425;52.126;20.638;2023-08-12T13:34:36;5.35;;;1.45;;
55993;SDS011;67425;52.126;20.638;2023-08-12T13:37:01;6.23;;;2.27;;
55993;SDS011;67425;52.126;20.638;2023-08-12T13:39:26;6.90;;;2.60;;
55993;SDS011;67425;52.126;20.638;2023-08-12T13:41:52;5.63;;;3.13;;
55993;SDS011;67425;52.126;20.638;2023-08-12T13:44:17;14.73;;;2.85;;
55993;SDS011;67425;52.126;20.638;2023-08-12T13:46:42;7.23;;;2.70;;
55993;SDS011;67425;52.126;20.638;2023-08-12T13:49:08;3.95;;;1.80;;
55993;SDS011;67425;52.126;20.638;2023-08-12T13:51:33;2.35;;;1.40;;
55993;SDS011;67425;52.126;20.638;2023-08-12T13:53:58;5.70;;;2.35;;
55993;SDS011;67425;52.126;20.638;2023-08-12T13:56:24;7.15;;;2.55;;
55993;SDS011;67425;52.126;20.638;2023-08-12T13:58:49;7.03;;;1.85;;
55993;SDS011;67425;52.126;20.638;2023-08-12T14:01:14;10.05;;;6.93;;
55993;SDS011;67425;52.126;20.638;2023-08-12T14:03:40;13.57;;;8.68;;
55993;SDS011;67425;52.126;20.638;2023-08-12T14:06:05;12.50;;;1.85;;
55993;SDS011;67425;52.126;20.638;2023-08-12T14:08:31;3.20;;;1.30;;
55993;SDS011;67425;52.126;20.638;2023-08-12T14:10:56;10.40;;;8.33;;
55993;SDS011;67425;52.126;20.638;2023-08-12T14:13:21;4.33;;;1.60;;
55993;SDS011;67425;52.126;20.638;2023-08-12T14:15:46;5.80;;;2.17;;
55993;SDS011;67425;52.126;20.638;2023-08-12T14:18:12;5.90;;;2.40;;
55993;SDS011;67425;52.126;20.638;2023-08-12T14:20:37;5.05;;;1.88;;
55993;SDS011;67425;52.126;20.638;2023-08-12T14:23:02;5.20;;;1.98;;
55993;SDS011;67425;52.126;20.638;2023-08-12T14:25:28;5.03;;;1.90;;
55993;SDS011;67425;52.126;20.638;2023-08-12T14:27:54;3.08;;;1.30;;
55993;SDS011;67425;52.126;20.638;2023-08-12T14:30:19;4.87;;;1.30;;
55993;SDS011;67425;52.126;20.638;2023-08-12T14:32:49;13.05;;;1.63;;
55993;SDS011;67425;52.126;20.638;2023-08-12T14:35:14;6.63;;;2.87;;